Richmond, Vermont
Current Conditions -  °F | °C
As of 1:54 PM on Thursday 23 Oct 2014 (Local Time) from KBTV Reporting Station
Moderate Rain Moderate Rain  
Wind Chill: 39°   Ceiling: 900
Heat Index: 45°   Visibility: 2mi
Dew Point: 41°   Wind: 13mph
Humidity: 86%   Direction: 340°NNW
Pressure: 29.94"   Gusts: NA
Location:  44.41°N, 72.99°W
Report Text: KBTV 231754Z 34011KT 2SM RA BR OVC009 07/05 A2994 RMK AO2 CIG 006V013 SLP139 P0005 60011 T00720050 10072 20067 56010
Loading
Personal Weather Stations






























Interactive Weather Map
Tropical Storm Tracking
New forecast layout! Learn more

10-Day Weather Forecast

Advertisements
Track Severe Weather on mobile